sensor_id;sensor_type;location;lat;lon;timestamp;pressure;altitude;pressure_sealevel;temperature
48854;BMP280;34673;52.808;17.856;2023-07-22T00:00:03;99855.72;;;18.80
48854;BMP280;34673;52.808;17.856;2023-07-22T00:02:32;99851.06;;;18.68
48854;BMP280;34673;52.808;17.856;2023-07-22T00:05:00;99851.19;;;18.65
48854;BMP280;34673;52.808;17.856;2023-07-22T00:07:27;99858.28;;;18.63
48854;BMP280;34673;52.808;17.856;2023-07-22T00:09:54;99853.50;;;18.53
48854;BMP280;34673;52.808;17.856;2023-07-22T00:12:21;99861.97;;;18.58
48854;BMP280;34673;52.808;17.856;2023-07-22T00:14:52;99843.16;;;18.50
48854;BMP280;34673;52.808;17.856;2023-07-22T00:17:22;99841.63;;;18.46
48854;BMP280;34673;52.808;17.856;2023-07-22T00:19:51;99847.03;;;18.43
48854;BMP280;34673;52.808;17.856;2023-07-22T00:22:18;99833.31;;;18.38
48854;BMP280;34673;52.808;17.856;2023-07-22T00:24:47;99841.78;;;18.43
48854;BMP280;34673;52.808;17.856;2023-07-22T00:27:14;99835.00;;;18.39
48854;BMP280;34673;52.808;17.856;2023-07-22T00:29:41;99824.97;;;18.30
48854;BMP280;34673;52.808;17.856;2023-07-22T00:32:09;99836.84;;;18.37
48854;BMP280;34673;52.808;17.856;2023-07-22T00:34:36;99821.88;;;18.22
48854;BMP280;34673;52.808;17.856;2023-07-22T00:37:06;99837.56;;;18.41
48854;BMP280;34673;52.808;17.856;2023-07-22T00:39:33;99844.41;;;18.43
48854;BMP280;34673;52.808;17.856;2023-07-22T00:42:01;99845.16;;;18.45
48854;BMP280;34673;52.808;17.856;2023-07-22T00:44:28;99845.16;;;18.45
48854;BMP280;34673;52.808;17.856;2023-07-22T00:46:56;99845.88;;;18.49
48854;BMP280;34673;52.808;17.856;2023-07-22T00:49:26;99816.03;;;18.34
48854;BMP280;34673;52.808;17.856;2023-07-22T00:51:56;99820.22;;;18.38
48854;BMP280;34673;52.808;17.856;2023-07-22T00:54:26;99833.84;;;18.45
48854;BMP280;34673;52.808;17.856;2023-07-22T00:56:54;99831.00;;;18.49
48854;BMP280;34673;52.808;17.856;2023-07-22T00:59:21;99818.34;;;18.40
48854;BMP280;34673;52.808;17.856;2023-07-22T01:01:48;99831.16;;;18.46
48854;BMP280;34673;52.808;17.856;2023-07-22T01:04:19;99829.16;;;18.51
48854;BMP280;34673;52.808;17.856;2023-07-22T01:06:49;99820.22;;;18.55
48854;BMP280;34673;52.808;17.856;2023-07-22T01:09:16;99824.47;;;18.58
48854;BMP280;34673;52.808;17.856;2023-07-22T01:11:43;99808.06;;;18.54
48854;BMP280;34673;52.808;17.856;2023-07-22T01:14:11;99816.53;;;18.59
48854;BMP280;34673;52.808;17.856;2023-07-22T01:16:39;99816.53;;;18.59
48854;BMP280;34673;52.808;17.856;2023-07-22T01:19:06;99811.91;;;18.47
48854;BMP280;34673;52.808;17.856;2023-07-22T01:21:36;99809.13;;;18.50
48854;BMP280;34673;52.808;17.856;2023-07-22T01:24:04;99806.34;;;18.53
48854;BMP280;34673;52.808;17.856;2023-07-22T01:26:32;99809.91;;;18.52
48854;BMP280;34673;52.808;17.856;2023-07-22T01:29:06;99800.00;;;18.40
48854;BMP280;34673;52.808;17.856;2023-07-22T01:31:37;99811.63;;;18.34
48854;BMP280;34673;52.808;17.856;2023-07-22T01:34:05;99806.34;;;18.36
48854;BMP280;34673;52.808;17.856;2023-07-22T01:36:32;99799.91;;;18.43
48854;BMP280;34673;52.808;17.856;2023-07-22T01:38:59;99791.09;;;18.44
48854;BMP280;34673;52.808;17.856;2023-07-22T01:41:27;99789.53;;;18.40
48854;BMP280;34673;52.808;17.856;2023-07-22T01:43:54;99794.25;;;18.33
48854;BMP280;34673;52.808;17.856;2023-07-22T01:46:22;99788.31;;;18.30
48854;BMP280;34673;52.808;17.856;2023-07-22T01:48:49;99792.94;;;18.42
48854;BMP280;34673;52.808;17.856;2023-07-22T01:51:16;99764.81;;;18.28
48854;BMP280;34673;52.808;17.856;2023-07-22T01:53:43;99794.34;;;18.49
48854;BMP280;34673;52.808;17.856;2023-07-22T01:56:10;99758.59;;;18.31
48854;BMP280;34673;52.808;17.856;2023-07-22T01:58:37;99797.59;;;18.54
48854;BMP280;34673;52.808;17.856;2023-07-22T02:01:05;99801.25;;;18.50
48854;BMP280;34673;52.808;17.856;2023-07-22T02:03:32;99795.50;;;18.44
48854;BMP280;34673;52.808;17.856;2023-07-22T02:06:06;99806.50;;;18.50
48854;BMP280;34673;52.808;17.856;2023-07-22T02:08:33;99808.50;;;18.45
48854;BMP280;34673;52.808;17.856;2023-07-22T02:11:05;99812.91;;;18.45
48854;BMP280;34673;52.808;17.856;2023-07-22T02:13:34;99809.66;;;18.39
48854;BMP280;34673;52.808;17.856;2023-07-22T02:16:02;99807.41;;;18.32
48854;BMP280;34673;52.808;17.856;2023-07-22T02:18:30;99804.47;;;18.21
48854;BMP280;34673;52.808;17.856;2023-07-22T02:20:57;99806.19;;;18.22
48854;BMP280;34673;52.808;17.856;2023-07-22T02:23:24;99803.63;;;18.20
48854;BMP280;34673;52.808;17.856;2023-07-22T02:25:53;99793.28;;;18.17
48854;BMP280;34673;52.808;17.856;2023-07-22T02:28:21;99791.81;;;18.11
48854;BMP280;34673;52.808;17.856;2023-07-22T02:30:49;99793.50;;;18.12
48854;BMP280;34673;52.808;17.856;2023-07-22T02:33:17;99808.47;;;18.10
48854;BMP280;34673;52.808;17.856;2023-07-22T02:35:44;99805.53;;;18.16
48854;BMP280;34673;52.808;17.856;2023-07-22T02:38:12;99807.72;;;18.26
48854;BMP280;34673;52.808;17.856;2023-07-22T02:40:41;99811.72;;;18.33
48854;BMP280;34673;52.808;17.856;2023-07-22T02:43:09;99815.13;;;18.35
48854;BMP280;34673;52.808;17.856;2023-07-22T02:45:37;99813.19;;;18.38
48854;BMP280;34673;52.808;17.856;2023-07-22T02:48:04;99816.34;;;18.28
48854;BMP280;34673;52.808;17.856;2023-07-22T02:50:31;99818.63;;;18.16
48854;BMP280;34673;52.808;17.856;2023-07-22T02:52:59;99828.47;;;18.11
48854;BMP280;34673;52.808;17.856;2023-07-22T02:55:26;99824.44;;;18.04
48854;BMP280;34673;52.808;17.856;2023-07-22T02:57:53;99828.34;;;17.96
48854;BMP280;34673;52.808;17.856;2023-07-22T03:00:20;99826.03;;;17.89
48854;BMP280;34673;52.808;17.856;2023-07-22T03:02:52;99832.09;;;17.90
48854;BMP280;34673;52.808;17.856;2023-07-22T03:05:20;99829.47;;;17.90
48854;BMP280;34673;52.808;17.856;2023-07-22T03:07:48;99832.88;;;17.92
48854;BMP280;34673;52.808;17.856;2023-07-22T03:10:15;99823.59;;;17.85
48854;BMP280;34673;52.808;17.856;2023-07-22T03:12:42;99828.25;;;17.78
48854;BMP280;34673;52.808;17.856;2023-07-22T03:15:10;99830.94;;;17.77
48854;BMP280;34673;52.808;17.856;2023-07-22T03:17:39;99830.28;;;17.71
48854;BMP280;34673;52.808;17.856;2023-07-22T03:20:09;99826.13;;;17.67
48854;BMP280;34673;52.808;17.856;2023-07-22T03:22:44;99830.59;;;17.65
48854;BMP280;34673;52.808;17.856;2023-07-22T03:25:12;99832.22;;;17.68
48854;BMP280;34673;52.808;17.856;2023-07-22T03:27:40;99835.72;;;17.67
48854;BMP280;34673;52.808;17.856;2023-07-22T03:30:11;99826.41;;;17.61
48854;BMP280;34673;52.808;17.856;2023-07-22T03:32:38;99835.31;;;17.57
48854;BMP280;34673;52.808;17.856;2023-07-22T03:35:06;99827.75;;;17.51
48854;BMP280;34673;52.808;17.856;2023-07-22T03:37:38;99833.88;;;17.50
48854;BMP280;34673;52.808;17.856;2023-07-22T03:40:07;99813.78;;;17.32
48854;BMP280;34673;52.808;17.856;2023-07-22T03:42:49;99831.91;;;17.55
48854;BMP280;34673;52.808;17.856;2023-07-22T03:45:17;99833.75;;;17.53
48854;BMP280;34673;52.808;17.856;2023-07-22T03:47:46;99833.38;;;17.42
48854;BMP280;34673;52.808;17.856;2023-07-22T03:50:13;99827.38;;;17.40
48854;BMP280;34673;52.808;17.856;2023-07-22T03:52:41;99845.06;;;17.54
48854;BMP280;34673;52.808;17.856;2023-07-22T03:55:08;99835.47;;;17.54
48854;BMP280;34673;52.808;17.856;2023-07-22T03:57:36;99840.69;;;17.54
48854;BMP280;34673;52.808;17.856;2023-07-22T04:00:04;99842.38;;;17.55
48854;BMP280;34673;52.808;17.856;2023-07-22T04:02:38;99841.53;;;17.55
48854;BMP280;34673;52.808;17.856;2023-07-22T04:05:05;99821.03;;;17.45
48854;BMP280;34673;52.808;17.856;2023-07-22T04:07:32;99820.06;;;17.48
48854;BMP280;34673;52.808;17.856;2023-07-22T04:10:00;99837.59;;;17.65
48854;BMP280;34673;52.808;17.856;2023-07-22T04:12:27;99843.38;;;17.71
48854;BMP280;34673;52.808;17.856;2023-07-22T04:14:55;99852.69;;;17.79
48854;BMP280;34673;52.808;17.856;2023-07-22T04:17:22;99855.00;;;17.85
48854;BMP280;34673;52.808;17.856;2023-07-22T04:19:51;99851.94;;;17.94
48854;BMP280;34673;52.808;17.856;2023-07-22T04:22:20;99839.88;;;17.91
48854;BMP280;34673;52.808;17.856;2023-07-22T04:24:48;99862.00;;;18.03
48854;BMP280;34673;52.808;17.856;2023-07-22T04:27:16;99852.47;;;18.02
48854;BMP280;34673;52.808;17.856;2023-07-22T04:29:45;99855.59;;;18.10
48854;BMP280;34673;52.808;17.856;2023-07-22T04:32:12;99854.84;;;18.07
48854;BMP280;34673;52.808;17.856;2023-07-22T04:34:40;99839.38;;;18.02
48854;BMP280;34673;52.808;17.856;2023-07-22T04:37:07;99862.34;;;18.14
48854;BMP280;34673;52.808;17.856;2023-07-22T04:39:34;99862.66;;;18.08
48854;BMP280;34673;52.808;17.856;2023-07-22T04:42:02;99869.56;;;18.09
48854;BMP280;34673;52.808;17.856;2023-07-22T04:44:29;99876.63;;;18.07
48854;BMP280;34673;52.808;17.856;2023-07-22T04:46:56;99878.66;;;18.02
48854;BMP280;34673;52.808;17.856;2023-07-22T04:49:24;99868.59;;;17.93
48854;BMP280;34673;52.808;17.856;2023-07-22T04:51:51;99871.50;;;17.87
48854;BMP280;34673;52.808;17.856;2023-07-22T04:54:18;99872.41;;;17.86
48854;BMP280;34673;52.808;17.856;2023-07-22T04:56:45;99872.28;;;17.89
48854;BMP280;34673;52.808;17.856;2023-07-22T04:59:13;99876.28;;;17.96
48854;BMP280;34673;52.808;17.856;2023-07-22T05:01:41;99872.69;;;17.99
48854;BMP280;34673;52.808;17.856;2023-07-22T05:04:10;99874.94;;;18.06
48854;BMP280;34673;52.808;17.856;2023-07-22T05:06:37;99874.66;;;18.12
48854;BMP280;34673;52.808;17.856;2023-07-22T05:09:04;99879.88;;;18.12
48854;BMP280;34673;52.808;17.856;2023-07-22T05:11:32;99864.19;;;18.12
48854;BMP280;34673;52.808;17.856;2023-07-22T05:13:59;99872.53;;;18.21
48854;BMP280;34673;52.808;17.856;2023-07-22T05:16:26;99875.63;;;18.29
48854;BMP280;34673;52.808;17.856;2023-07-22T05:18:54;99875.56;;;18.30
48854;BMP280;34673;52.808;17.856;2023-07-22T05:21:21;99867.78;;;18.29
48854;BMP280;34673;52.808;17.856;2023-07-22T05:23:48;99865.16;;;18.29
48854;BMP280;34673;52.808;17.856;2023-07-22T05:26:15;99873.50;;;18.37
48854;BMP280;34673;52.808;17.856;2023-07-22T05:28:42;99868.97;;;18.41
48854;BMP280;34673;52.808;17.856;2023-07-22T05:31:10;99857.03;;;18.35
48854;BMP280;34673;52.808;17.856;2023-07-22T05:33:37;99862.75;;;18.43
48854;BMP280;34673;52.808;17.856;2023-07-22T05:36:04;99852.47;;;18.38
48854;BMP280;34673;52.808;17.856;2023-07-22T05:38:31;99866.25;;;18.42
48854;BMP280;34673;52.808;17.856;2023-07-22T05:40:59;99853.81;;;18.47
48854;BMP280;34673;52.808;17.856;2023-07-22T05:43:26;99855.22;;;18.54
48854;BMP280;34673;52.808;17.856;2023-07-22T05:45:53;99855.22;;;18.54
48854;BMP280;34673;52.808;17.856;2023-07-22T05:48:21;99854.22;;;18.57
48854;BMP280;34673;52.808;17.856;2023-07-22T05:50:48;99849.13;;;18.54
48854;BMP280;34673;52.808;17.856;2023-07-22T05:53:16;99847.09;;;18.59
48854;BMP280;34673;52.808;17.856;2023-07-22T05:55:43;99844.25;;;18.64
48854;BMP280;34673;52.808;17.856;2023-07-22T05:58:17;99842.06;;;18.73
48854;BMP280;34673;52.808;17.856;2023-07-22T06:00:45;99844.53;;;18.76
48854;BMP280;34673;52.808;17.856;2023-07-22T06:03:16;99845.22;;;18.80
48854;BMP280;34673;52.808;17.856;2023-07-22T06:05:43;99858.47;;;18.94
48854;BMP280;34673;52.808;17.856;2023-07-22T06:08:10;99852.09;;;19.00
48854;BMP280;34673;52.808;17.856;2023-07-22T06:10:39;99856.19;;;19.06
48854;BMP280;34673;52.808;17.856;2023-07-22T06:13:06;99864.19;;;19.20
48854;BMP280;34673;52.808;17.856;2023-07-22T06:15:34;99859.38;;;19.28
48854;BMP280;34673;52.808;17.856;2023-07-22T06:18:01;99867.88;;;19.33
48854;BMP280;34673;52.808;17.856;2023-07-22T06:20:29;99857.81;;;19.41
48854;BMP280;34673;52.808;17.856;2023-07-22T06:22:56;99860.56;;;19.56
48854;BMP280;34673;52.808;17.856;2023-07-22T06:25:24;99846.19;;;19.63
48854;BMP280;34673;52.808;17.856;2023-07-22T06:27:51;99847.09;;;19.79
48854;BMP280;34673;52.808;17.856;2023-07-22T06:30:21;99853.25;;;19.94
48854;BMP280;34673;52.808;17.856;2023-07-22T06:32:48;99852.31;;;20.11
48854;BMP280;34673;52.808;17.856;2023-07-22T06:35:17;99858.59;;;20.24
48854;BMP280;34673;52.808;17.856;2023-07-22T06:37:44;99855.09;;;20.40
48854;BMP280;34673;52.808;17.856;2023-07-22T06:40:11;99857.91;;;20.68
48854;BMP280;34673;52.808;17.856;2023-07-22T06:42:38;99869.34;;;20.81
48854;BMP280;34673;52.808;17.856;2023-07-22T06:45:06;99857.97;;;20.97
48854;BMP280;34673;52.808;17.856;2023-07-22T06:47:34;99866.81;;;21.10
48854;BMP280;34673;52.808;17.856;2023-07-22T06:50:03;99855.47;;;21.24
48854;BMP280;34673;52.808;17.856;2023-07-22T06:52:31;99854.81;;;21.35
48854;BMP280;34673;52.808;17.856;2023-07-22T06:54:59;99867.63;;;21.41
48854;BMP280;34673;52.808;17.856;2023-07-22T06:57:26;99872.81;;;21.57
48854;BMP280;34673;52.808;17.856;2023-07-22T06:59:54;99862.38;;;21.55
48854;BMP280;34673;52.808;17.856;2023-07-22T07:02:21;99878.34;;;21.66
48854;BMP280;34673;52.808;17.856;2023-07-22T07:04:49;99881.34;;;21.75
48854;BMP280;34673;52.808;17.856;2023-07-22T07:07:16;99875.13;;;21.90
48854;BMP280;34673;52.808;17.856;2023-07-22T07:09:43;99861.47;;;21.98
48854;BMP280;34673;52.808;17.856;2023-07-22T07:12:10;99872.28;;;22.07
48854;BMP280;34673;52.808;17.856;2023-07-22T07:14:38;99876.13;;;22.16
48854;BMP280;34673;52.808;17.856;2023-07-22T07:17:05;99871.78;;;22.29
48854;BMP280;34673;52.808;17.856;2023-07-22T07:19:33;99876.72;;;22.48
48854;BMP280;34673;52.808;17.856;2023-07-22T07:22:00;99869.59;;;22.76
48854;BMP280;34673;52.808;17.856;2023-07-22T07:24:28;99869.06;;;22.98
48854;BMP280;34673;52.808;17.856;2023-07-22T07:26:55;99874.56;;;23.08
48854;BMP280;34673;52.808;17.856;2023-07-22T07:29:22;99882.56;;;23.06
48854;BMP280;34673;52.808;17.856;2023-07-22T07:32:10;99887.09;;;23.04
48854;BMP280;34673;52.808;17.856;2023-07-22T07:34:37;99869.50;;;23.05
48854;BMP280;34673;52.808;17.856;2023-07-22T07:37:05;99885.31;;;23.17
48854;BMP280;34673;52.808;17.856;2023-07-22T07:39:32;99875.00;;;23.27
48854;BMP280;34673;52.808;17.856;2023-07-22T07:42:00;99891.47;;;23.43
48854;BMP280;34673;52.808;17.856;2023-07-22T07:44:27;99884.91;;;23.49
48854;BMP280;34673;52.808;17.856;2023-07-22T07:46:54;99874.56;;;23.46
48854;BMP280;34673;52.808;17.856;2023-07-22T07:49:21;99898.22;;;23.73
48854;BMP280;34673;52.808;17.856;2023-07-22T07:51:49;99895.78;;;23.70
48854;BMP280;34673;52.808;17.856;2023-07-22T07:54:16;99899.06;;;23.48
48854;BMP280;34673;52.808;17.856;2023-07-22T07:56:43;99910.88;;;23.17
48854;BMP280;34673;52.808;17.856;2023-07-22T07:59:10;99909.94;;;22.91
48854;BMP280;34673;52.808;17.856;2023-07-22T08:01:38;99908.13;;;22.78
48854;BMP280;34673;52.808;17.856;2023-07-22T08:04:12;99912.22;;;22.70
48854;BMP280;34673;52.808;17.856;2023-07-22T08:06:39;99919.09;;;22.58
48854;BMP280;34673;52.808;17.856;2023-07-22T08:09:11;99931.78;;;22.53
48854;BMP280;34673;52.808;17.856;2023-07-22T08:11:42;99912.84;;;22.46
48854;BMP280;34673;52.808;17.856;2023-07-22T08:14:10;99917.00;;;22.50
48854;BMP280;34673;52.808;17.856;2023-07-22T08:16:37;99915.81;;;22.82
48854;BMP280;34673;52.808;17.856;2023-07-22T08:19:04;99911.69;;;23.17
48854;BMP280;34673;52.808;17.856;2023-07-22T08:21:32;99916.28;;;23.54
48854;BMP280;34673;52.808;17.856;2023-07-22T08:23:59;99906.25;;;23.84
48854;BMP280;34673;52.808;17.856;2023-07-22T08:26:26;99916.94;;;24.20
48854;BMP280;34673;52.808;17.856;2023-07-22T08:28:54;99905.53;;;24.19
48854;BMP280;34673;52.808;17.856;2023-07-22T08:31:21;99901.47;;;24.26
48854;BMP280;34673;52.808;17.856;2023-07-22T08:33:48;99927.66;;;24.42
48854;BMP280;34673;52.808;17.856;2023-07-22T08:36:16;99927.31;;;24.10
48854;BMP280;34673;52.808;17.856;2023-07-22T08:38:43;99918.50;;;23.60
48854;BMP280;34673;52.808;17.856;2023-07-22T08:41:14;99938.13;;;23.30
48854;BMP280;34673;52.808;17.856;2023-07-22T08:43:45;99930.53;;;23.51
48854;BMP280;34673;52.808;17.856;2023-07-22T08:46:15;99938.75;;;23.47
48854;BMP280;34673;52.808;17.856;2023-07-22T08:48:46;99944.63;;;23.12
48854;BMP280;34673;52.808;17.856;2023-07-22T08:51:17;99927.13;;;22.56
48854;BMP280;34673;52.808;17.856;2023-07-22T08:56:31;99958.44;;;22.75
48854;BMP280;34673;52.808;17.856;2023-07-22T08:58:58;99939.78;;;23.31
48854;BMP280;34673;52.808;17.856;2023-07-22T09:01:26;99921.44;;;23.68
48854;BMP280;34673;52.808;17.856;2023-07-22T09:03:55;99943.63;;;23.65
48854;BMP280;34673;52.808;17.856;2023-07-22T09:06:24;99943.50;;;23.41
48854;BMP280;34673;52.808;17.856;2023-07-22T09:08:53;99923.97;;;23.18
48854;BMP280;34673;52.808;17.856;2023-07-22T09:11:21;99945.50;;;23.25
48854;BMP280;34673;52.808;17.856;2023-07-22T09:13:49;99951.50;;;22.87
48854;BMP280;34673;52.808;17.856;2023-07-22T09:16:18;99959.53;;;22.44
48854;BMP280;34673;52.808;17.856;2023-07-22T09:18:47;99964.66;;;22.04
48854;BMP280;34673;52.808;17.856;2023-07-22T09:21:15;99969.53;;;21.82
48854;BMP280;34673;52.808;17.856;2023-07-22T09:23:42;99957.53;;;22.21
48854;BMP280;34673;52.808;17.856;2023-07-22T09:26:15;99952.63;;;22.97
48854;BMP280;34673;52.808;17.856;2023-07-22T09:28:56;99948.06;;;23.52
48854;BMP280;34673;52.808;17.856;2023-07-22T09:31:25;99968.59;;;23.74
48854;BMP280;34673;52.808;17.856;2023-07-22T09:33:53;99984.59;;;23.45
48854;BMP280;34673;52.808;17.856;2023-07-22T09:36:21;99987.38;;;22.90
48854;BMP280;34673;52.808;17.856;2023-07-22T09:39:01;99998.16;;;22.45
48854;BMP280;34673;52.808;17.856;2023-07-22T09:41:32;99956.38;;;21.82
48854;BMP280;34673;52.808;17.856;2023-07-22T09:44:02;99999.69;;;22.21
48854;BMP280;34673;52.808;17.856;2023-07-22T09:46:33;99981.75;;;22.54
48854;BMP280;34673;52.808;17.856;2023-07-22T09:49:09;100005.97;;;22.88
48854;BMP280;34673;52.808;17.856;2023-07-22T09:51:39;100003.94;;;23.06
48854;BMP280;34673;52.808;17.856;2023-07-22T09:54:22;100008.63;;;23.28
48854;BMP280;34673;52.808;17.856;2023-07-22T09:56:53;100016.66;;;23.39
48854;BMP280;34673;52.808;17.856;2023-07-22T09:59:21;100013.56;;;23.60
48854;BMP280;34673;52.808;17.856;2023-07-22T10:01:50;100001.66;;;23.80
48854;BMP280;34673;52.808;17.856;2023-07-22T10:04:20;100004.06;;;23.70
48854;BMP280;34673;52.808;17.856;2023-07-22T10:06:48;100009.16;;;23.73
48854;BMP280;34673;52.808;17.856;2023-07-22T10:09:17;100022.38;;;23.86
48854;BMP280;34673;52.808;17.856;2023-07-22T10:11:45;100030.84;;;23.64
48854;BMP280;34673;52.808;17.856;2023-07-22T10:14:32;100036.34;;;23.61
48854;BMP280;34673;52.808;17.856;2023-07-22T10:17:14;100028.97;;;23.66
48854;BMP280;34673;52.808;17.856;2023-07-22T10:19:43;100026.56;;;23.88
48854;BMP280;34673;52.808;17.856;2023-07-22T10:22:11;100040.84;;;24.11
48854;BMP280;34673;52.808;17.856;2023-07-22T10:24:39;100033.22;;;24.32
48854;BMP280;34673;52.808;17.856;2023-07-22T10:27:08;100030.03;;;24.53
48854;BMP280;34673;52.808;17.856;2023-07-22T10:29:35;100039.75;;;24.65
48854;BMP280;34673;52.808;17.856;2023-07-22T10:32:04;100014.72;;;24.82
48854;BMP280;34673;52.808;17.856;2023-07-22T10:34:36;100019.50;;;25.01
48854;BMP280;34673;52.808;17.856;2023-07-22T10:37:04;100022.47;;;24.96
48854;BMP280;34673;52.808;17.856;2023-07-22T10:39:32;100023.59;;;25.05
48854;BMP280;34673;52.808;17.856;2023-07-22T10:42:05;100016.38;;;25.20
48854;BMP280;34673;52.808;17.856;2023-07-22T10:44:35;99982.31;;;25.27
48854;BMP280;34673;52.808;17.856;2023-07-22T10:47:03;100009.50;;;25.64
48854;BMP280;34673;52.808;17.856;2023-07-22T10:49:46;100015.44;;;25.79
48854;BMP280;34673;52.808;17.856;2023-07-22T10:52:14;100022.19;;;25.83
48854;BMP280;34673;52.808;17.856;2023-07-22T10:54:42;100017.31;;;25.90
48854;BMP280;34673;52.808;17.856;2023-07-22T10:57:23;100017.19;;;26.02
48854;BMP280;34673;52.808;17.856;2023-07-22T10:59:55;100019.38;;;26.20
48854;BMP280;34673;52.808;17.856;2023-07-22T11:02:28;100013.31;;;26.29
48854;BMP280;34673;52.808;17.856;2023-07-22T11:05:02;100020.19;;;26.31
48854;BMP280;34673;52.808;17.856;2023-07-22T11:07:44;100003.22;;;26.23
48854;BMP280;34673;52.808;17.856;2023-07-22T11:10:15;100009.47;;;26.33
48854;BMP280;34673;52.808;17.856;2023-07-22T11:12:45;100018.88;;;26.26
48854;BMP280;34673;52.808;17.856;2023-07-22T11:15:16;100013.34;;;25.95
48854;BMP280;34673;52.808;17.856;2023-07-22T11:17:45;100020.09;;;25.64
48854;BMP280;34673;52.808;17.856;2023-07-22T11:20:12;100020.81;;;25.19
48854;BMP280;34673;52.808;17.856;2023-07-22T11:22:40;100024.25;;;25.33
48854;BMP280;34673;52.808;17.856;2023-07-22T11:25:08;100024.84;;;25.36
48854;BMP280;34673;52.808;17.856;2023-07-22T11:27:36;100006.88;;;25.29
48854;BMP280;34673;52.808;17.856;2023-07-22T11:30:03;100004.09;;;25.65
48854;BMP280;34673;52.808;17.856;2023-07-22T11:32:31;100009.22;;;25.91
48854;BMP280;34673;52.808;17.856;2023-07-22T11:34:59;100017.41;;;25.99
48854;BMP280;34673;52.808;17.856;2023-07-22T11:37:29;99995.50;;;25.51
48854;BMP280;34673;52.808;17.856;2023-07-22T11:40:01;100022.19;;;25.12
48854;BMP280;34673;52.808;17.856;2023-07-22T11:42:28;100003.34;;;24.93
48854;BMP280;34673;52.808;17.856;2023-07-22T11:44:56;100024.78;;;25.01
48854;BMP280;34673;52.808;17.856;2023-07-22T11:47:33;100014.53;;;24.72
48854;BMP280;34673;52.808;17.856;2023-07-22T11:50:00;100025.53;;;24.29
48854;BMP280;34673;52.808;17.856;2023-07-22T11:52:29;100013.38;;;24.14
48854;BMP280;34673;52.808;17.856;2023-07-22T11:55:02;100025.41;;;24.18
48854;BMP280;34673;52.808;17.856;2023-07-22T11:57:36;100018.59;;;24.40
48854;BMP280;34673;52.808;17.856;2023-07-22T12:00:28;100007.50;;;24.60
48854;BMP280;34673;52.808;17.856;2023-07-22T12:02:56;100022.84;;;24.55
48854;BMP280;34673;52.808;17.856;2023-07-22T12:05:36;100007.31;;;24.38
48854;BMP280;34673;52.808;17.856;2023-07-22T12:08:22;100004.78;;;24.49
48854;BMP280;34673;52.808;17.856;2023-07-22T12:10:58;100010.66;;;24.40
48854;BMP280;34673;52.808;17.856;2023-07-22T12:13:38;100024.38;;;24.08
48854;BMP280;34673;52.808;17.856;2023-07-22T12:16:22;100035.31;;;23.63
48854;BMP280;34673;52.808;17.856;2023-07-22T12:19:01;100038.84;;;23.37
48854;BMP280;34673;52.808;17.856;2023-07-22T12:21:28;100042.56;;;23.34
48854;BMP280;34673;52.808;17.856;2023-07-22T12:23:55;100045.81;;;23.38
48854;BMP280;34673;52.808;17.856;2023-07-22T12:26:23;100035.44;;;23.62
48854;BMP280;34673;52.808;17.856;2023-07-22T12:28:51;100022.25;;;23.87
48854;BMP280;34673;52.808;17.856;2023-07-22T12:31:18;100031.75;;;24.16
48854;BMP280;34673;52.808;17.856;2023-07-22T12:33:45;100040.31;;;24.45
48854;BMP280;34673;52.808;17.856;2023-07-22T12:36:13;100028.56;;;24.86
48854;BMP280;34673;52.808;17.856;2023-07-22T12:38:47;100022.50;;;25.20
48854;BMP280;34673;52.808;17.856;2023-07-22T12:45:36;100020.31;;;25.50
48854;BMP280;34673;52.808;17.856;2023-07-22T12:48:03;100025.47;;;25.51
48854;BMP280;34673;52.808;17.856;2023-07-22T12:50:32;100018.72;;;25.36
48854;BMP280;34673;52.808;17.856;2023-07-22T12:53:01;100019.19;;;25.30
48854;BMP280;34673;52.808;17.856;2023-07-22T12:55:29;100027.72;;;25.09
48854;BMP280;34673;52.808;17.856;2023-07-22T12:57:56;100009.16;;;24.98
48854;BMP280;34673;52.808;17.856;2023-07-22T13:00:23;100020.78;;;24.95
48854;BMP280;34673;52.808;17.856;2023-07-22T13:02:50;100032.31;;;24.70
48854;BMP280;34673;52.808;17.856;2023-07-22T13:05:27;100042.94;;;24.45
48854;BMP280;34673;52.808;17.856;2023-07-22T13:08:07;100044.22;;;24.26
48854;BMP280;34673;52.808;17.856;2023-07-22T13:10:42;100038.53;;;24.07
48854;BMP280;34673;52.808;17.856;2023-07-22T13:13:12;100034.06;;;24.07
48854;BMP280;34673;52.808;17.856;2023-07-22T13:23:41;100037.84;;;24.42
48854;BMP280;34673;52.808;17.856;2023-07-22T13:27:06;100048.13;;;24.33
48854;BMP280;34673;52.808;17.856;2023-07-22T13:33:40;100036.63;;;24.09
48854;BMP280;34673;52.808;17.856;2023-07-22T13:36:37;100040.84;;;24.24
48854;BMP280;34673;52.808;17.856;2023-07-22T13:40:18;100036.41;;;24.38
48854;BMP280;34673;52.808;17.856;2023-07-22T13:43:19;100003.63;;;24.27
48854;BMP280;34673;52.808;17.856;2023-07-22T13:45:49;100033.00;;;24.36
48854;BMP280;34673;52.808;17.856;2023-07-22T13:48:32;100032.16;;;24.48
48854;BMP280;34673;52.808;17.856;2023-07-22T13:51:35;100033.81;;;24.62
48854;BMP280;34673;52.808;17.856;2023-07-22T13:59:02;100022.66;;;24.32
48854;BMP280;34673;52.808;17.856;2023-07-22T14:02:06;100047.81;;;24.25
48854;BMP280;34673;52.808;17.856;2023-07-22T14:04:36;100041.16;;;24.07
48854;BMP280;34673;52.808;17.856;2023-07-22T14:07:06;100045.72;;;24.05
48854;BMP280;34673;52.808;17.856;2023-07-22T14:09:57;100052.25;;;24.12
48854;BMP280;34673;52.808;17.856;2023-07-22T14:12:57;100030.91;;;24.15
48854;BMP280;34673;52.808;17.856;2023-07-22T14:15:37;100038.13;;;24.13
48854;BMP280;34673;52.808;17.856;2023-07-22T14:18:25;100035.78;;;23.96
48854;BMP280;34673;52.808;17.856;2023-07-22T14:21:23;100000.03;;;23.52
48854;BMP280;34673;52.808;17.856;2023-07-22T14:32:14;100054.63;;;23.64
48854;BMP280;34673;52.808;17.856;2023-07-22T14:35:24;100039.13;;;23.72
48854;BMP280;34673;52.808;17.856;2023-07-22T14:38:27;100036.19;;;23.77
48854;BMP280;34673;52.808;17.856;2023-07-22T14:40:55;100042.53;;;23.87
48854;BMP280;34673;52.808;17.856;2023-07-22T14:43:22;100039.78;;;23.88